createdAt,value
2018-03-21T00:00:25.190Z,22.90
2018-03-21T00:01:25.175Z,24.10
2018-03-21T00:02:25.167Z,21.30
2018-03-21T00:03:25.156Z,23.60
2018-03-21T00:04:25.140Z,22.50
2018-03-21T00:05:46.126Z,22.00
2018-03-21T00:06:25.116Z,23.80
2018-03-21T00:07:25.098Z,21.80
2018-03-21T00:08:25.090Z,22.70
2018-03-21T00:09:25.154Z,21.30
2018-03-21T00:10:25.086Z,21.40
2018-03-21T00:11:46.078Z,22.40
2018-03-21T00:12:25.053Z,22.30
2018-03-21T00:13:25.051Z,21.40
2018-03-21T00:14:25.071Z,23.40
2018-03-21T00:15:25.034Z,21.10
2018-03-21T00:16:25.012Z,22.80
2018-03-21T00:17:46.020Z,24.40
2018-03-21T00:18:24.984Z,23.50
2018-03-21T00:19:24.984Z,23.00
2018-03-21T00:20:24.983Z,23.20
2018-03-21T00:21:24.943Z,23.30
2018-03-21T00:22:24.932Z,23.90
2018-03-21T00:23:45.932Z,22.20
2018-03-21T00:24:24.904Z,23.10
2018-03-21T00:25:24.902Z,24.00
2018-03-21T00:26:24.891Z,22.90
2018-03-21T00:27:24.957Z,22.30
2018-03-21T00:28:24.886Z,23.80
2018-03-21T00:29:45.858Z,23.70
2018-03-21T00:30:24.852Z,23.70
2018-03-21T00:31:24.830Z,24.50
2018-03-21T00:32:24.836Z,24.40
2018-03-21T00:33:24.813Z,23.00
2018-03-21T00:34:24.795Z,22.40
2018-03-21T00:35:45.785Z,23.20
2018-03-21T00:36:24.771Z,21.90
2018-03-21T00:37:24.765Z,23.10
2018-03-21T00:38:24.750Z,22.80
2018-03-21T00:39:24.739Z,22.90
2018-03-21T00:40:24.731Z,23.10
2018-03-21T00:41:45.739Z,22.20
2018-03-21T00:42:24.708Z,22.60
2018-03-21T00:43:24.691Z,26.40
2018-03-21T00:44:24.692Z,23.40
2018-03-21T00:45:24.690Z,21.30
2018-03-21T00:46:24.665Z,21.40
2018-03-21T00:47:45.643Z,24.30
2018-03-21T00:48:24.652Z,23.30
2018-03-21T00:49:24.626Z,22.60
2018-03-21T00:50:24.607Z,21.80
2018-03-21T00:51:24.610Z,20.90
2018-03-21T00:52:24.592Z,26.00
2018-03-21T00:53:45.592Z,22.60
2018-03-21T00:54:24.566Z,23.90
2018-03-21T00:55:24.554Z,21.80
2018-03-21T00:56:24.553Z,23.20
2018-03-21T00:57:24.534Z,20.20
2018-03-21T00:58:24.514Z,24.30
2018-03-21T00:59:45.520Z,22.20
2018-03-21T01:00:24.494Z,22.20
2018-03-21T01:01:24.504Z,20.90
2018-03-21T01:02:24.573Z,23.60
2018-03-21T01:03:24.475Z,22.40
2018-03-21T01:04:24.462Z,24.50
2018-03-21T01:05:45.467Z,20.20
2018-03-21T01:06:24.434Z,23.20
2018-03-21T01:07:24.440Z,21.70
2018-03-21T01:08:24.413Z,22.00
2018-03-21T01:09:24.405Z,23.20
2018-03-21T01:10:24.382Z,20.80
2018-03-21T01:11:45.374Z,22.10
2018-03-21T01:12:24.381Z,20.50
2018-03-21T01:13:24.350Z,22.30
2018-03-21T01:14:24.351Z,21.10
2018-03-21T01:15:24.335Z,19.90
2018-03-21T01:16:24.318Z,21.20
2018-03-21T01:17:45.315Z,22.20
2018-03-21T01:18:24.296Z,21.30
2018-03-21T01:19:24.294Z,21.90
2018-03-21T01:20:24.264Z,21.50
2018-03-21T01:21:24.250Z,20.30
2018-03-21T01:22:24.241Z,19.60
2018-03-21T01:23:45.233Z,21.30
2018-03-21T01:24:24.229Z,23.00
2018-03-21T01:25:24.207Z,18.50
2018-03-21T01:26:24.212Z,18.10
2018-03-21T01:27:24.195Z,18.10
2018-03-21T01:28:24.186Z,19.90
2018-03-21T01:29:45.208Z,20.40
2018-03-21T01:30:24.147Z,19.30
2018-03-21T01:31:24.156Z,21.10
2018-03-21T01:32:24.119Z,19.30
2018-03-21T01:33:24.118Z,18.10
2018-03-21T01:34:24.124Z,21.00
2018-03-21T01:35:45.117Z,19.40
2018-03-21T01:36:24.097Z,22.50
2018-03-21T01:37:24.084Z,19.50
2018-03-21T01:38:24.058Z,20.00
2018-03-21T01:39:24.067Z,20.00
2018-03-21T01:40:24.027Z,17.90
2018-03-21T01:41:45.024Z,17.70
2018-03-21T01:42:24.037Z,18.60
2018-03-21T01:43:23.997Z,19.50
2018-03-21T01:44:24.004Z,17.30
2018-03-21T01:45:23.984Z,21.30
2018-03-21T01:46:23.964Z,17.90
2018-03-21T01:47:44.965Z,20.10
2018-03-21T01:48:23.966Z,20.00
2018-03-21T01:49:23.931Z,18.80
2018-03-21T01:50:23.909Z,19.00
2018-03-21T01:51:23.911Z,18.30
2018-03-21T01:52:23.912Z,20.00
2018-03-21T01:53:44.898Z,23.80
2018-03-21T01:54:23.889Z,20.80
2018-03-21T01:55:23.869Z,21.10
2018-03-21T01:56:23.859Z,21.80
2018-03-21T01:57:23.828Z,22.30
2018-03-21T01:58:23.848Z,22.10
2018-03-21T01:59:44.818Z,24.30
2018-03-21T02:00:23.814Z,19.10
2018-03-21T02:01:23.855Z,22.60
2018-03-21T02:02:23.780Z,21.10
2018-03-21T02:03:23.776Z,24.90
2018-03-21T02:04:23.747Z,20.10
2018-03-21T02:05:44.758Z,21.90
2018-03-21T02:06:23.733Z,22.10
2018-03-21T02:07:23.731Z,21.30
2018-03-21T02:08:23.702Z,20.00
2018-03-21T02:09:23.717Z,17.80
2018-03-21T02:10:23.705Z,16.70
2018-03-21T02:11:44.672Z,20.50
2018-03-21T02:12:23.670Z,19.30
2018-03-21T02:13:23.649Z,14.70
2018-03-21T02:14:23.635Z,14.90
2018-03-21T02:15:23.640Z,15.20
2018-03-21T02:16:23.613Z,15.10
2018-03-21T02:17:44.618Z,16.90
2018-03-21T02:18:23.598Z,15.00
2018-03-21T02:19:23.579Z,14.00
2018-03-21T02:20:23.594Z,15.90
2018-03-21T02:21:23.553Z,15.90
2018-03-21T02:22:23.547Z,16.50
2018-03-21T02:23:44.543Z,15.30
2018-03-21T02:24:23.517Z,17.40
2018-03-21T02:25:23.502Z,17.00
2018-03-21T02:26:23.498Z,17.00
2018-03-21T02:27:23.497Z,14.90
2018-03-21T02:28:23.481Z,16.10
2018-03-21T02:29:44.462Z,16.30
2018-03-21T02:30:23.452Z,16.50
2018-03-21T02:31:23.432Z,14.80
2018-03-21T02:32:23.428Z,15.60
2018-03-21T02:33:23.414Z,14.60
2018-03-21T02:34:23.395Z,14.60
2018-03-21T02:35:44.402Z,13.10
2018-03-21T02:36:23.372Z,14.90
2018-03-21T02:37:23.392Z,13.40
2018-03-21T02:38:23.352Z,13.70
2018-03-21T02:39:23.347Z,14.50
2018-03-21T02:40:23.326Z,13.90
2018-03-21T02:41:44.341Z,13.70
2018-03-21T02:42:23.308Z,14.00
2018-03-21T02:43:23.348Z,12.80
2018-03-21T02:44:23.291Z,14.50
2018-03-21T02:45:23.266Z,14.30
2018-03-21T02:46:23.264Z,13.50
2018-03-21T02:47:44.247Z,13.70
2018-03-21T02:48:23.233Z,11.00
2018-03-21T02:49:23.223Z,13.90
2018-03-21T02:50:23.209Z,10.90
2018-03-21T02:51:23.207Z,13.30
2018-03-21T02:52:23.178Z,13.50
2018-03-21T02:53:44.185Z,13.40
2018-03-21T02:54:23.168Z,11.30
2018-03-21T02:55:23.158Z,12.00
2018-03-21T02:56:23.177Z,13.90
2018-03-21T02:57:23.124Z,14.10
2018-03-21T02:58:23.135Z,12.90
2018-03-21T02:59:44.107Z,13.60
2018-03-21T03:00:23.106Z,12.80
2018-03-21T03:01:23.073Z,12.20
2018-03-21T03:02:23.088Z,11.30
2018-03-21T03:03:23.060Z,11.50
2018-03-21T03:04:23.041Z,14.20
2018-03-21T03:05:44.042Z,12.30
2018-03-21T03:06:23.033Z,13.50
2018-03-21T03:07:23.131Z,11.20
2018-03-21T03:08:23.018Z,11.80
2018-03-21T03:09:22.982Z,12.10
2018-03-21T03:10:22.968Z,11.10
2018-03-21T03:11:43.963Z,10.40
2018-03-21T03:12:22.958Z,10.70
2018-03-21T03:13:22.936Z,11.10
2018-03-21T03:14:22.935Z,11.00
2018-03-21T03:15:22.910Z,10.70
2018-03-21T03:16:22.904Z,10.80
2018-03-21T03:17:43.888Z,10.30
2018-03-21T03:18:22.894Z,12.20
2018-03-21T03:19:22.867Z,10.20
2018-03-21T03:20:22.846Z,9.40
2018-03-21T03:21:22.840Z,11.00
2018-03-21T03:22:22.830Z,8.80
2018-03-21T03:23:43.818Z,11.50
2018-03-21T03:24:22.801Z,9.50
2018-03-21T03:25:22.787Z,11.00
2018-03-21T03:26:22.778Z,9.30
2018-03-21T03:27:22.765Z,8.80
2018-03-21T03:28:22.755Z,11.40
2018-03-21T03:29:43.744Z,9.60
2018-03-21T03:30:22.740Z,9.00
2018-03-21T03:31:22.787Z,10.00
2018-03-21T03:32:22.708Z,10.10
2018-03-21T03:33:22.698Z,8.90
2018-03-21T03:34:22.691Z,8.40
2018-03-21T03:35:43.677Z,10.00
2018-03-21T03:36:22.667Z,10.60
2018-03-21T03:37:22.663Z,8.20
2018-03-21T03:38:22.640Z,10.00
2018-03-21T03:39:22.636Z,9.00
2018-03-21T03:40:22.621Z,9.50
2018-03-21T03:41:43.617Z,10.20
2018-03-21T03:42:22.604Z,10.50
2018-03-21T03:43:22.593Z,8.90
2018-03-21T03:44:22.571Z,13.30
2018-03-21T03:45:22.554Z,9.20
2018-03-21T03:46:22.539Z,10.00
2018-03-21T03:47:43.527Z,12.60
2018-03-21T03:48:22.525Z,9.20
2018-03-21T03:49:22.516Z,9.50
2018-03-21T03:50:22.508Z,8.90
2018-03-21T03:51:22.498Z,9.80
2018-03-21T03:52:22.466Z,9.50
2018-03-21T03:53:43.488Z,8.70
2018-03-21T03:54:22.442Z,9.60
2018-03-21T03:55:22.429Z,10.20
2018-03-21T03:56:22.423Z,8.70
2018-03-21T03:57:22.407Z,10.40
2018-03-21T03:58:22.394Z,8.90
2018-03-21T03:59:43.387Z,7.50
2018-03-21T04:00:22.369Z,8.50
2018-03-21T04:01:22.371Z,9.20
2018-03-21T04:02:22.382Z,8.10
2018-03-21T04:03:22.340Z,7.60
2018-03-21T04:04:22.332Z,8.60
2018-03-21T04:05:43.336Z,9.90
2018-03-21T04:06:22.372Z,8.00
2018-03-21T04:07:22.286Z,9.40
2018-03-21T04:08:22.282Z,8.30
2018-03-21T04:09:22.263Z,6.70
2018-03-21T04:10:22.258Z,7.60
2018-03-21T04:11:43.249Z,7.90
2018-03-21T04:12:22.229Z,8.30
2018-03-21T04:13:22.212Z,6.80
2018-03-21T04:14:22.886Z,8.10
2018-03-21T04:15:22.196Z,7.30
2018-03-21T04:16:22.201Z,8.80
2018-03-21T04:17:43.168Z,8.20
2018-03-21T04:18:22.171Z,7.90
2018-03-21T04:19:22.180Z,8.50
2018-03-21T04:20:22.142Z,6.70
2018-03-21T04:21:22.130Z,8.70
2018-03-21T04:22:22.116Z,8.10
2018-03-21T04:23:43.094Z,8.40
2018-03-21T04:24:22.143Z,8.20
2018-03-21T04:25:22.078Z,9.40
2018-03-21T04:26:22.063Z,6.70
2018-03-21T04:27:22.042Z,6.90
2018-03-21T04:28:22.033Z,7.60
2018-03-21T04:29:43.028Z,9.30
2018-03-21T04:30:22.005Z,6.50
2018-03-21T04:31:21.988Z,8.40
2018-03-21T04:32:21.990Z,6.00
2018-03-21T04:33:21.985Z,7.50
2018-03-21T04:34:21.949Z,7.30
2018-03-21T04:35:42.951Z,7.40
2018-03-21T04:36:21.931Z,7.90
2018-03-21T04:37:21.928Z,7.80
2018-03-21T04:38:21.923Z,7.90
2018-03-21T04:39:21.895Z,7.00
2018-03-21T04:40:21.889Z,7.50
2018-03-21T04:41:42.872Z,7.70
2018-03-21T04:42:21.858Z,8.20
2018-03-21T04:43:21.843Z,8.60
2018-03-21T04:44:21.834Z,9.10
2018-03-21T04:45:21.815Z,7.30
2018-03-21T04:46:21.807Z,7.70
2018-03-21T04:47:42.822Z,11.10
2018-03-21T04:48:21.784Z,8.30
2018-03-21T04:49:21.773Z,8.10
2018-03-21T04:50:21.757Z,9.90
2018-03-21T04:51:21.748Z,10.80
2018-03-21T04:52:21.729Z,8.00
2018-03-21T04:53:42.724Z,9.20
2018-03-21T04:54:21.707Z,10.90
2018-03-21T04:55:21.698Z,9.20
2018-03-21T04:56:21.687Z,8.50
2018-03-21T04:57:21.671Z,8.20
2018-03-21T04:58:21.660Z,8.70
2018-03-21T04:59:42.658Z,7.80
2018-03-21T05:00:21.634Z,7.70
2018-03-21T05:01:21.622Z,8.00
2018-03-21T05:02:21.612Z,6.70
2018-03-21T05:03:21.597Z,7.10
2018-03-21T05:04:21.595Z,8.50
2018-03-21T05:05:42.583Z,9.10
2018-03-21T05:06:21.551Z,7.40
2018-03-21T05:07:21.554Z,7.50
2018-03-21T05:08:21.568Z,7.60
2018-03-21T05:09:21.534Z,8.60
2018-03-21T05:10:21.517Z,7.50
2018-03-21T05:11:42.507Z,9.60
2018-03-21T05:12:21.495Z,8.20
2018-03-21T05:13:21.480Z,7.40
2018-03-21T05:14:21.462Z,8.40
2018-03-21T05:15:21.452Z,9.00
2018-03-21T05:16:21.438Z,7.90
2018-03-21T05:17:42.430Z,8.40
2018-03-21T05:18:21.413Z,6.80
2018-03-21T05:19:21.406Z,7.80
2018-03-21T05:20:21.384Z,9.20
2018-03-21T05:21:21.376Z,9.60
2018-03-21T05:22:21.373Z,7.20
2018-03-21T05:23:42.364Z,7.90
2018-03-21T05:24:21.359Z,7.60
2018-03-21T05:25:21.330Z,7.90
2018-03-21T05:26:21.320Z,9.10
2018-03-21T05:27:21.321Z,8.50
2018-03-21T05:28:21.301Z,7.00
2018-03-21T05:29:42.295Z,9.90
2018-03-21T05:30:21.262Z,8.90
2018-03-21T05:31:21.262Z,8.00
2018-03-21T05:32:21.245Z,9.50
2018-03-21T05:33:21.234Z,9.80
2018-03-21T05:34:21.230Z,8.50
2018-03-21T05:35:42.225Z,10.20
2018-03-21T05:36:21.192Z,8.80
2018-03-21T05:37:21.181Z,11.80
2018-03-21T05:38:21.163Z,13.20
2018-03-21T05:39:21.181Z,13.70
2018-03-21T05:40:21.140Z,15.00
2018-03-21T05:41:42.144Z,18.50
2018-03-21T05:42:21.121Z,22.30
2018-03-21T05:43:21.110Z,15.90
2018-03-21T05:44:21.107Z,17.70
2018-03-21T05:45:21.095Z,14.90
2018-03-21T05:46:21.060Z,15.30
2018-03-21T05:47:42.055Z,14.70
2018-03-21T05:48:21.054Z,16.40
2018-03-21T05:49:21.046Z,14.60
2018-03-21T05:50:21.021Z,12.80
2018-03-21T05:51:21.001Z,13.80
2018-03-21T05:52:20.993Z,13.30
2018-03-21T05:53:41.992Z,14.60
2018-03-21T05:54:20.969Z,12.40
2018-03-21T05:55:20.962Z,17.30
2018-03-21T05:56:20.946Z,14.20
2018-03-21T05:57:20.921Z,10.90
2018-03-21T05:58:20.934Z,11.10
2018-03-21T05:59:41.926Z,10.90
2018-03-21T06:00:20.887Z,11.20
2018-03-21T06:01:20.891Z,12.30
2018-03-21T06:02:20.874Z,9.80
2018-03-21T06:03:20.874Z,11.30
2018-03-21T06:04:20.861Z,10.00
2018-03-21T06:05:41.830Z,12.60
2018-03-21T06:06:20.824Z,11.30
2018-03-21T06:07:20.801Z,10.80
2018-03-21T06:08:20.796Z,10.10
2018-03-21T06:09:20.785Z,9.60
2018-03-21T06:10:20.768Z,9.80
2018-03-21T06:11:42.375Z,10.50
2018-03-21T06:12:20.757Z,9.50
2018-03-21T06:13:20.726Z,12.80
2018-03-21T06:14:20.720Z,10.50
2018-03-21T06:15:20.710Z,12.00
2018-03-21T06:16:20.694Z,10.20
2018-03-21T06:17:41.677Z,10.30
2018-03-21T06:18:20.673Z,11.00
2018-03-21T06:19:20.659Z,11.60
2018-03-21T06:20:20.660Z,12.70
2018-03-21T06:21:20.634Z,11.10
2018-03-21T06:22:20.634Z,11.10
2018-03-21T06:23:41.635Z,11.40
2018-03-21T06:24:20.601Z,11.00
2018-03-21T06:25:20.579Z,12.50
2018-03-21T06:26:20.573Z,7.50
2018-03-21T06:27:20.554Z,11.80
2018-03-21T06:28:20.563Z,10.80
2018-03-21T06:29:41.542Z,12.90
2018-03-21T06:30:20.557Z,13.70
2018-03-21T06:31:20.515Z,10.10
2018-03-21T06:32:20.526Z,9.80
2018-03-21T06:33:20.506Z,13.30
2018-03-21T06:34:20.493Z,10.20
2018-03-21T06:35:41.466Z,13.00
2018-03-21T06:36:20.467Z,12.00
2018-03-21T06:37:20.465Z,12.00
2018-03-21T06:38:20.426Z,11.10
2018-03-21T06:39:20.422Z,14.00
2018-03-21T06:40:20.416Z,11.10
2018-03-21T06:41:41.411Z,13.00
2018-03-21T06:42:20.374Z,14.20
2018-03-21T06:43:20.362Z,10.40
2018-03-21T06:44:20.365Z,13.20
2018-03-21T06:45:20.347Z,12.20
2018-03-21T06:46:20.330Z,12.40
2018-03-21T06:47:41.323Z,12.40
2018-03-21T06:48:20.298Z,13.90
2018-03-21T06:49:20.289Z,14.30
2018-03-21T06:50:20.289Z,14.00
2018-03-21T06:51:20.276Z,15.70
2018-03-21T06:52:20.260Z,13.90
2018-03-21T06:53:41.246Z,14.20
2018-03-21T06:54:20.233Z,14.40
2018-03-21T06:55:20.220Z,13.60
2018-03-21T06:56:20.207Z,13.50
2018-03-21T06:57:20.193Z,12.60
2018-03-21T06:58:20.188Z,13.70
2018-03-21T06:59:41.178Z,13.50
2018-03-21T07:00:20.166Z,12.80
2018-03-21T07:01:20.153Z,12.00
2018-03-21T07:02:20.138Z,14.60
2018-03-21T07:03:20.126Z,12.00
2018-03-21T07:04:20.113Z,15.40
2018-03-21T07:05:41.122Z,13.20
2018-03-21T07:06:20.093Z,13.60
2018-03-21T07:07:20.076Z,11.50
2018-03-21T07:08:20.073Z,10.30
2018-03-21T07:09:20.047Z,12.90
2018-03-21T07:10:20.047Z,8.10
2018-03-21T07:11:41.034Z,9.80
2018-03-21T07:12:20.056Z,8.80
2018-03-21T07:13:20.022Z,9.10
2018-03-21T07:14:20.002Z,9.60
2018-03-21T07:15:19.981Z,8.10
2018-03-21T07:16:19.978Z,8.40
2018-03-21T07:17:40.976Z,6.90
2018-03-21T07:18:19.960Z,8.20
2018-03-21T07:19:19.947Z,9.40
2018-03-21T07:20:19.935Z,7.00
2018-03-21T07:21:19.923Z,6.80
2018-03-21T07:22:19.908Z,9.60
2018-03-21T07:23:40.901Z,8.60
2018-03-21T07:24:19.892Z,8.80
2018-03-21T07:25:19.879Z,7.50
2018-03-21T07:26:19.861Z,6.80
2018-03-21T07:27:19.846Z,7.60
2018-03-21T07:28:19.839Z,7.60
2018-03-21T07:29:40.830Z,7.40
2018-03-21T07:30:19.822Z,8.00
2018-03-21T07:31:19.812Z,8.70
2018-03-21T07:32:19.786Z,11.10
2018-03-21T07:33:19.777Z,8.20
2018-03-21T07:34:19.771Z,6.20
2018-03-21T07:35:40.764Z,5.30
2018-03-21T07:36:19.776Z,6.40
2018-03-21T07:37:19.737Z,6.50
2018-03-21T07:38:19.729Z,7.70
2018-03-21T07:39:19.738Z,8.20
2018-03-21T07:40:19.704Z,9.00
2018-03-21T07:41:40.685Z,8.80
2018-03-21T07:42:19.683Z,7.30
2018-03-21T07:43:19.690Z,10.10
2018-03-21T07:44:19.656Z,7.70
2018-03-21T07:45:19.634Z,9.10
2018-03-21T07:46:19.625Z,7.30
2018-03-21T07:47:40.647Z,9.50
2018-03-21T07:48:19.605Z,7.50
2018-03-21T07:49:19.602Z,10.90
2018-03-21T07:50:19.592Z,6.20
2018-03-21T07:51:19.570Z,9.50
2018-03-21T07:52:19.570Z,6.70
2018-03-21T07:53:40.567Z,8.30
2018-03-21T07:54:19.550Z,6.90
2018-03-21T07:55:19.530Z,8.30
2018-03-21T07:56:19.516Z,10.60
2018-03-21T07:57:19.506Z,7.90
2018-03-21T07:58:19.548Z,7.10
2018-03-21T07:59:40.512Z,6.70
2018-03-21T08:00:19.476Z,8.30
2018-03-21T08:01:19.464Z,7.80
2018-03-21T08:02:19.517Z,5.80
2018-03-21T08:03:19.464Z,8.10
2018-03-21T08:04:19.437Z,6.40
2018-03-21T08:05:40.417Z,5.90
2018-03-21T08:06:19.417Z,5.80
2018-03-21T08:07:19.422Z,6.00
2018-03-21T08:08:19.429Z,7.40
2018-03-21T08:09:19.458Z,7.40
2018-03-21T08:10:19.360Z,7.00
2018-03-21T08:11:40.357Z,6.10
2018-03-21T08:12:19.345Z,8.00
2018-03-21T08:13:19.335Z,7.80
2018-03-21T08:14:19.318Z,6.20
2018-03-21T08:15:19.314Z,8.00
2018-03-21T08:16:19.332Z,9.40
2018-03-21T08:17:40.298Z,8.30
2018-03-21T08:18:19.293Z,8.50
2018-03-21T08:19:19.331Z,8.90
2018-03-21T08:20:19.297Z,9.60
2018-03-21T08:21:19.246Z,8.50
2018-03-21T08:22:19.232Z,7.20
2018-03-21T08:23:40.225Z,6.50
2018-03-21T08:24:19.206Z,7.30
2018-03-21T08:25:19.203Z,8.40
2018-03-21T08:26:19.179Z,10.10
2018-03-21T08:27:19.181Z,7.80
2018-03-21T08:28:19.171Z,7.70
2018-03-21T08:29:40.222Z,9.40
2018-03-21T08:30:19.141Z,7.60
2018-03-21T08:31:19.136Z,6.30
2018-03-21T08:32:19.121Z,7.70
2018-03-21T08:33:19.112Z,5.30
2018-03-21T08:34:19.201Z,5.50
2018-03-21T08:35:40.099Z,7.50
2018-03-21T08:36:19.080Z,8.90
2018-03-21T08:37:19.073Z,9.70
2018-03-21T08:38:19.067Z,7.20
2018-03-21T08:39:19.048Z,8.40
2018-03-21T08:40:19.036Z,6.90
2018-03-21T08:41:40.033Z,8.00
2018-03-21T08:42:19.025Z,7.70
2018-03-21T08:43:19.006Z,6.20
2018-03-21T08:44:19.009Z,7.20
2018-03-21T08:45:18.992Z,8.30
2018-03-21T08:46:18.974Z,6.30
2018-03-21T08:47:39.973Z,6.30
2018-03-21T08:48:18.956Z,7.60
2018-03-21T08:49:18.946Z,10.00
2018-03-21T08:50:18.935Z,7.30
2018-03-21T08:51:18.971Z,9.20
2018-03-21T08:52:18.998Z,8.40
2018-03-21T08:53:39.906Z,8.60
2018-03-21T08:54:18.894Z,7.60
2018-03-21T08:55:18.901Z,6.80
2018-03-21T08:56:18.872Z,6.30
2018-03-21T08:57:18.865Z,7.00
2018-03-21T08:58:18.865Z,7.20
2018-03-21T08:59:39.869Z,7.00
2018-03-21T09:00:18.857Z,8.70
2018-03-21T09:01:18.817Z,8.20
2018-03-21T09:02:18.820Z,6.80
2018-03-21T09:03:18.863Z,5.60
2018-03-21T09:04:18.784Z,7.10
2018-03-21T09:05:39.780Z,6.80
2018-03-21T09:06:18.824Z,6.40
2018-03-21T09:07:18.760Z,6.60
2018-03-21T09:08:18.755Z,6.40
2018-03-21T09:09:18.782Z,7.20
2018-03-21T09:10:18.730Z,6.60
2018-03-21T09:11:39.720Z,8.10
2018-03-21T09:12:18.707Z,5.50
2018-03-21T09:13:18.716Z,6.40
2018-03-21T09:14:18.689Z,5.10
2018-03-21T09:15:18.722Z,7.30
2018-03-21T09:16:18.732Z,5.00
2018-03-21T09:17:39.721Z,5.60
2018-03-21T09:18:18.652Z,6.10
2018-03-21T09:19:18.645Z,5.90
2018-03-21T09:20:18.684Z,7.30
2018-03-21T09:21:18.617Z,6.70
2018-03-21T09:22:18.623Z,5.10
2018-03-21T09:23:39.616Z,5.60
2018-03-21T09:24:18.591Z,5.10
2018-03-21T09:25:18.577Z,6.60
2018-03-21T09:26:18.611Z,8.70
2018-03-21T09:27:18.625Z,6.40
2018-03-21T09:28:18.550Z,6.70
2018-03-21T09:29:39.541Z,7.70
2018-03-21T09:30:18.524Z,7.00
2018-03-21T09:31:18.526Z,5.00
2018-03-21T09:32:18.515Z,5.40
2018-03-21T09:33:18.567Z,5.70
2018-03-21T09:34:18.509Z,5.40
2018-03-21T09:35:39.578Z,4.80
2018-03-21T09:36:18.476Z,6.50
2018-03-21T09:37:18.473Z,5.30
2018-03-21T09:38:18.447Z,5.20
2018-03-21T09:39:18.472Z,6.00
2018-03-21T09:40:18.429Z,7.00
2018-03-21T09:41:39.429Z,6.50
2018-03-21T09:42:18.423Z,6.30
2018-03-21T09:43:18.402Z,6.00
2018-03-21T09:44:18.391Z,8.50
2018-03-21T09:45:18.383Z,7.50
2018-03-21T09:46:18.379Z,5.90
2018-03-21T09:47:39.434Z,6.40
2018-03-21T09:48:18.390Z,6.70
2018-03-21T09:49:18.340Z,6.00
2018-03-21T09:50:18.337Z,6.30
2018-03-21T09:51:18.338Z,5.90
2018-03-21T09:52:18.359Z,6.40
2018-03-21T09:53:39.384Z,8.10
2018-03-21T09:54:18.318Z,5.40
2018-03-21T09:55:18.348Z,4.50
2018-03-21T09:56:18.283Z,5.10
2018-03-21T09:57:18.281Z,5.20
2018-03-21T09:58:18.287Z,4.90
2018-03-21T09:59:39.309Z,8.70
2018-03-21T10:00:18.244Z,5.10
2018-03-21T10:01:18.260Z,5.40
2018-03-21T10:02:18.290Z,5.20
2018-03-21T10:03:18.292Z,5.20
2018-03-21T10:04:18.201Z,5.10
2018-03-21T10:05:39.243Z,6.40
2018-03-21T10:06:18.208Z,5.60
2018-03-21T10:07:18.183Z,5.20
2018-03-21T10:08:18.165Z,6.00
2018-03-21T10:09:18.151Z,5.20
2018-03-21T10:10:18.152Z,6.00
2018-03-21T10:11:39.141Z,5.70
2018-03-21T10:12:18.149Z,4.00
2018-03-21T10:13:18.120Z,6.50
2018-03-21T10:14:18.112Z,5.30
2018-03-21T10:15:18.116Z,4.70
2018-03-21T10:16:18.090Z,4.80
2018-03-21T10:17:39.079Z,4.20
2018-03-21T10:18:18.078Z,4.70
2018-03-21T10:19:18.054Z,4.10
2018-03-21T10:20:18.047Z,4.50
2018-03-21T10:21:18.046Z,5.40
2018-03-21T10:22:18.023Z,6.30
2018-03-21T10:23:39.070Z,4.30
2018-03-21T10:24:18.006Z,4.10
2018-03-21T10:25:18.002Z,4.00
2018-03-21T10:26:17.994Z,5.10
2018-03-21T10:27:18.085Z,5.70
2018-03-21T10:28:17.972Z,4.40
2018-03-21T10:29:38.969Z,5.20
2018-03-21T10:30:17.976Z,4.30
2018-03-21T10:31:17.970Z,4.90
2018-03-21T10:32:17.949Z,5.20
2018-03-21T10:33:17.916Z,5.10
2018-03-21T10:34:17.917Z,5.00
2018-03-21T10:35:38.910Z,5.30
2018-03-21T10:36:17.895Z,4.20
2018-03-21T10:37:17.890Z,5.80
2018-03-21T10:38:17.885Z,4.50
2018-03-21T10:39:17.873Z,3.90
2018-03-21T10:40:17.914Z,5.00
2018-03-21T10:41:38.855Z,4.20
2018-03-21T10:42:17.840Z,3.90
2018-03-21T10:43:17.839Z,4.20
2018-03-21T10:44:17.835Z,4.50
2018-03-21T10:45:17.815Z,3.70
2018-03-21T10:46:17.823Z,4.60
2018-03-21T10:47:38.818Z,5.80
2018-03-21T10:48:17.806Z,5.70
2018-03-21T10:49:17.792Z,4.20
2018-03-21T10:50:17.769Z,5.20
2018-03-21T10:51:17.768Z,3.80
2018-03-21T10:52:17.754Z,3.90
2018-03-21T10:53:38.744Z,3.40
2018-03-21T10:54:17.732Z,4.70
2018-03-21T10:55:17.736Z,4.70
2018-03-21T10:56:17.712Z,3.60
2018-03-21T10:57:17.790Z,4.00
2018-03-21T10:58:17.710Z,5.20
2018-03-21T10:59:38.690Z,3.80
2018-03-21T11:00:17.686Z,4.60
2018-03-21T11:01:17.666Z,4.30
2018-03-21T11:02:17.693Z,3.20
2018-03-21T11:03:17.659Z,5.60
2018-03-21T11:04:17.660Z,3.70
2018-03-21T11:05:38.654Z,3.00
2018-03-21T11:06:17.624Z,3.60
2018-03-21T11:07:17.648Z,3.00
2018-03-21T11:08:17.622Z,4.30
2018-03-21T11:09:17.607Z,3.70
2018-03-21T11:10:17.588Z,5.70
2018-03-21T11:11:38.624Z,3.20
2018-03-21T11:12:17.579Z,4.40
2018-03-21T11:13:17.570Z,4.20
2018-03-21T11:14:17.553Z,4.50
2018-03-21T11:15:17.551Z,6.40
2018-03-21T11:16:17.543Z,4.20
2018-03-21T11:17:38.567Z,4.10
2018-03-21T11:18:17.595Z,6.10
2018-03-21T11:19:17.560Z,4.00
2018-03-21T11:20:17.504Z,2.80
2018-03-21T11:21:17.511Z,3.00
2018-03-21T11:22:17.533Z,3.70
2018-03-21T11:23:38.494Z,4.60
2018-03-21T11:24:17.464Z,4.00
2018-03-21T11:25:17.664Z,4.90
2018-03-21T11:26:17.452Z,5.50
2018-03-21T11:27:17.486Z,5.00
2018-03-21T11:28:17.440Z,3.80
2018-03-21T11:29:38.430Z,4.30
2018-03-21T11:30:17.481Z,4.40
2018-03-21T11:31:17.426Z,4.00
2018-03-21T11:32:17.420Z,5.30
2018-03-21T11:33:17.468Z,4.90
2018-03-21T11:34:17.389Z,4.90
2018-03-21T11:35:38.456Z,3.00
2018-03-21T11:36:17.404Z,4.20
2018-03-21T11:37:17.384Z,4.50
2018-03-21T11:38:17.394Z,3.80
2018-03-21T11:39:17.922Z,5.70
2018-03-21T11:40:17.388Z,3.30
2018-03-21T11:41:38.389Z,3.50
2018-03-21T11:42:17.418Z,4.50
2018-03-21T11:43:17.356Z,5.10
2018-03-21T11:44:17.315Z,4.00
2018-03-21T11:45:17.424Z,2.80
2018-03-21T11:46:17.301Z,3.60
2018-03-21T11:47:38.318Z,4.30
2018-03-21T11:48:17.325Z,2.50
2018-03-21T11:49:17.324Z,5.90
2018-03-21T11:50:17.269Z,3.00
2018-03-21T11:51:17.276Z,4.00
2018-03-21T11:52:17.295Z,4.40
2018-03-21T11:53:38.276Z,4.10
2018-03-21T11:54:17.274Z,4.00
2018-03-21T11:55:17.252Z,4.80
2018-03-21T11:56:17.247Z,5.80
2018-03-21T11:57:17.244Z,3.20
2018-03-21T11:58:17.228Z,3.90
2018-03-21T11:59:38.263Z,5.80
2018-03-21T12:00:17.208Z,4.80
2018-03-21T12:01:18.477Z,3.70
2018-03-21T12:02:17.221Z,3.10
2018-03-21T12:03:17.238Z,5.10
2018-03-21T12:04:17.209Z,5.00
2018-03-21T12:05:38.194Z,3.30
2018-03-21T12:06:17.186Z,3.80
2018-03-21T12:07:17.236Z,3.20
2018-03-21T12:08:17.208Z,3.70
2018-03-21T12:09:17.240Z,4.70
2018-03-21T12:10:17.241Z,3.90
2018-03-21T12:11:38.188Z,3.30
2018-03-21T12:12:17.155Z,3.90
2018-03-21T12:13:17.143Z,6.30
2018-03-21T12:14:17.170Z,4.20
2018-03-21T12:15:17.143Z,4.60
2018-03-21T12:16:17.124Z,4.80
2018-03-21T12:17:38.166Z,2.80
2018-03-21T12:18:17.127Z,3.30
2018-03-21T12:19:17.157Z,3.50
2018-03-21T12:20:17.150Z,2.80
2018-03-21T12:21:17.137Z,2.60
2018-03-21T12:22:17.090Z,3.60
2018-03-21T12:23:38.141Z,4.10
2018-03-21T12:24:17.198Z,3.60
2018-03-21T12:25:17.071Z,4.70
2018-03-21T12:26:17.080Z,4.70
2018-03-21T12:27:17.098Z,4.60
2018-03-21T12:28:17.071Z,3.70
2018-03-21T12:29:38.071Z,3.00
2018-03-21T12:30:17.057Z,4.10
2018-03-21T12:31:17.043Z,2.50
2018-03-21T12:32:17.051Z,3.60
2018-03-21T12:33:17.079Z,4.40
2018-03-21T12:34:17.068Z,3.40
2018-03-21T12:35:38.046Z,4.00
2018-03-21T12:36:17.024Z,3.10
2018-03-21T12:37:17.061Z,3.10
2018-03-21T12:38:17.005Z,3.80
2018-03-21T12:39:17.061Z,4.90
2018-03-21T12:40:17.015Z,2.80
2018-03-21T12:41:37.979Z,4.10
2018-03-21T12:42:16.981Z,4.90
2018-03-21T12:43:16.968Z,3.90
2018-03-21T12:44:17.005Z,2.80
2018-03-21T12:45:16.968Z,3.50
2018-03-21T12:46:17.034Z,2.70
2018-03-21T12:47:38.017Z,3.70
2018-03-21T12:48:16.942Z,4.10
2018-03-21T12:49:16.951Z,3.80
2018-03-21T12:50:16.939Z,3.40
2018-03-21T12:51:16.951Z,4.30
2018-03-21T12:52:16.928Z,4.10
2018-03-21T12:53:37.942Z,3.90
2018-03-21T12:54:16.987Z,3.10
2018-03-21T12:55:16.979Z,4.80
2018-03-21T12:56:16.966Z,3.70
2018-03-21T12:57:16.884Z,3.70
2018-03-21T12:58:16.884Z,3.40
2018-03-21T12:59:37.879Z,3.30
2018-03-21T13:00:16.876Z,3.60
2018-03-21T13:01:16.871Z,3.10
2018-03-21T13:02:16.856Z,5.80
2018-03-21T13:03:16.888Z,4.20
2018-03-21T13:04:16.852Z,4.10
2018-03-21T13:05:38.458Z,3.00
2018-03-21T13:06:16.860Z,3.50
2018-03-21T13:07:16.835Z,3.90
2018-03-21T13:08:16.823Z,3.90